Time;durP1;ratioP1;P1;durP2;ratioP2;P2;SDS_P1;SDS_P2;PMS_P1;PMS_P2;Temp;Humidity;BMP_temperature;BMP_pressure;BME280_temperature;BME280_humidity;BME280_pressure;Samples;Min_cycle;Max_cycle;Signal;HPM_P1;HPM_P2
2021/09/13 00:06:48;;;;;;;7.30;5.23;;;13.90;99.90;;;;;;20937809;28;20029;-78
2021/09/13 00:16:49;;;;;;;9.17;5.13;;;13.80;99.90;;;;;;20935607;28;20039;-78
2021/09/13 00:26:51;;;;;;;8.37;5.03;;;14.00;99.90;;;;;;20934189;28;20495;-78
2021/09/13 00:36:51;;;;;;;6.57;4.97;;;14.30;99.90;;;;;;20933009;28;20064;-78
2021/09/13 00:46:55;;;;;;;9.32;4.72;;;14.30;99.90;;;;;;20949168;28;20040;-78
2021/09/13 00:56:56;;;;;;;7.32;4.20;;;13.90;99.90;;;;;;20998635;28;20028;-78
2021/09/13 01:06:58;;;;;;;6.78;4.30;;;13.90;99.90;;;;;;21016241;28;20031;-78
2021/09/13 01:16:59;;;;;;;5.50;4.23;;;13.80;99.90;;;;;;20996074;28;20032;-77
2021/09/13 01:27:05;;;;;;;8.83;5.13;;;13.60;99.90;;;;;;20993320;28;20047;-78
2021/09/13 01:37:07;;;;;;;6.15;4.72;;;13.50;99.90;;;;;;20974943;28;20051;-78
2021/09/13 01:47:09;;;;;;;8.47;4.83;;;13.40;99.90;;;;;;20988718;28;20033;-78
2021/09/13 01:57:11;;;;;;;8.48;5.53;;;13.30;99.90;;;;;;20983741;28;20479;-78
2021/09/13 02:07:13;;;;;;;8.98;5.68;;;13.30;99.90;;;;;;20983532;28;20054;-78
2021/09/13 02:17:17;;;;;;;5.72;4.38;;;13.10;99.90;;;;;;20988119;28;20071;-78
2021/09/13 02:27:20;;;;;;;7.00;4.97;;;13.10;99.90;;;;;;20988246;28;20375;-78
2021/09/13 02:37:21;;;;;;;8.40;4.67;;;13.00;99.90;;;;;;20985909;28;20043;-78
2021/09/13 02:47:22;;;;;;;6.93;5.27;;;12.90;99.90;;;;;;20984920;28;20498;-78
2021/09/13 02:57:23;;;;;;;8.18;5.15;;;12.90;99.90;;;;;;21026688;28;20436;-78
2021/09/13 03:07:27;;;;;;;7.53;5.18;;;13.00;99.90;;;;;;20999898;28;20517;-78
2021/09/13 03:17:28;;;;;;;13.87;6.10;;;13.10;99.90;;;;;;21017968;28;20028;-78
2021/09/13 03:27:35;;;;;;;7.30;5.57;;;12.70;99.90;;;;;;21080452;28;20122;-77
2021/09/13 03:37:38;;;;;;;6.28;4.63;;;12.70;99.90;;;;;;21057401;28;20489;-78
2021/09/13 03:47:41;;;;;;;9.23;4.95;;;12.80;99.90;;;;;;21077336;28;20559;-78
2021/09/13 03:57:42;;;;;;;9.63;5.80;;;12.60;99.90;;;;;;21077515;28;20118;-78
2021/09/13 04:18:15;;;;;;;10.80;6.32;;;12.10;99.90;;;;;;21022512;28;20037;-78
2021/09/13 04:28:47;;;;;;;8.88;5.88;;;12.00;99.90;;;;;;20994913;28;20034;-77
2021/09/13 04:39:24;;;;;;;10.25;6.88;;;12.10;99.90;;;;;;20991670;28;20036;-76
2021/09/13 04:49:48;;;;;;;11.82;6.50;;;12.30;99.90;;;;;;20961564;28;20037;-75
2021/09/13 05:00:08;;;;;;;9.50;6.43;;;12.20;99.90;;;;;;20895785;28;20060;-75
2021/09/13 05:10:11;;;;;;;8.20;5.72;;;12.30;99.90;;;;;;20928251;28;20119;-76
2021/09/13 05:20:13;;;;;;;8.55;6.07;;;12.10;99.90;;;;;;20979259;28;20037;-76
2021/09/13 05:30:15;;;;;;;10.02;6.68;;;12.20;99.90;;;;;;20958717;28;20040;-76
2021/09/13 05:40:16;;;;;;;9.48;6.10;;;12.30;99.90;;;;;;20992761;28;20025;-75
2021/09/13 05:50:17;;;;;;;7.53;5.93;;;12.70;99.90;;;;;;21072131;22;20493;-76
2021/09/13 06:00:19;;;;;;;10.93;5.73;;;13.20;99.90;;;;;;21116856;28;20020;-76
2021/09/13 06:10:20;;;;;;;12.50;6.65;;;13.60;99.90;;;;;;21140276;28;20417;-76
2021/09/13 06:20:23;;;;;;;12.63;7.82;;;14.10;99.90;;;;;;21139886;28;20028;-75
2021/09/13 06:30:27;;;;;;;9.85;6.80;;;14.70;99.90;;;;;;21139726;28;20036;-76
2021/09/13 06:40:28;;;;;;;8.93;6.33;;;15.40;99.90;;;;;;21138902;28;20471;-76
2021/09/13 06:50:29;;;;;;;9.43;6.93;;;16.30;99.90;;;;;;21139696;28;20104;-76
2021/09/13 07:00:29;;;;;;;11.70;6.17;;;16.70;99.90;;;;;;21138487;28;20061;-76
2021/09/13 07:10:30;;;;;;;11.97;5.20;;;17.10;99.90;;;;;;21156400;28;20024;-76
2021/09/13 07:20:31;;;;;;;8.37;6.10;;;17.70;99.90;;;;;;21155909;28;20051;-76
2021/09/13 07:30:32;;;;;;;12.53;6.97;;;17.80;99.90;;;;;;21166338;28;20055;-76
2021/09/13 07:40:33;;;;;;;11.70;5.67;;;18.60;99.90;;;;;;21152130;28;20038;-76
2021/09/13 07:50:34;;;;;;;8.07;4.90;;;19.30;99.90;;;;;;21169741;28;20505;-76
2021/09/13 08:00:35;;;;;;;6.57;4.50;;;19.00;99.90;;;;;;21168943;28;20027;-76
2021/09/13 08:10:35;;;;;;;6.97;4.17;;;20.30;99.90;;;;;;21168433;28;20658;-76
2021/09/13 08:20:36;;;;;;;5.67;3.87;;;21.50;99.90;;;;;;21149963;28;20028;-76
2021/09/13 08:30:39;;;;;;;5.20;3.45;;;21.00;99.90;;;;;;21158898;28;20114;-76
2021/09/13 08:40:40;;;;;;;4.35;3.00;;;20.90;99.90;;;;;;21165857;28;20121;-76
2021/09/13 09:00:42;;;;;;;7.20;4.60;;;22.40;99.90;;;;;;21163900;28;20034;-76
2021/09/13 09:10:54;;;;;;;5.00;3.90;;;23.00;99.90;;;;;;21163161;28;20024;-76
2021/09/13 09:20:55;;;;;;;9.27;4.70;;;23.20;99.90;;;;;;21162275;28;20158;-76
2021/09/13 09:30:56;;;;;;;;;;;23.90;99.90;;;;;;21144639;28;20028;-76
2021/09/13 09:41:08;;;;;;;5.78;4.68;;;24.30;99.90;;;;;;21142959;28;19965;-76
2021/09/13 09:51:29;;;;;;;8.23;4.20;;;25.60;99.90;;;;;;21141333;28;20040;-76
2021/09/13 10:01:41;;;;;;;6.45;4.10;;;26.10;99.90;;;;;;21159319;28;20092;-75
2021/09/13 10:11:43;;;;;;;5.80;3.55;;;27.50;99.90;;;;;;21158879;28;20035;-76
2021/09/13 10:21:44;;;;;;;5.68;3.83;;;28.30;99.90;;;;;;21169672;28;20071;-76
2021/09/13 10:31:46;;;;;;;5.30;4.20;;;27.50;99.90;;;;;;21163607;28;20042;-75
2021/09/13 10:41:57;;;;;;;3.25;2.95;;;27.00;99.90;;;;;;21157771;28;20035;-76
2021/09/13 10:52:28;;;;;;;8.07;3.90;;;28.40;99.90;;;;;;21139165;28;20139;-76
2021/09/13 11:02:29;;;;;;;8.02;3.55;;;27.80;99.90;;;;;;21163286;28;20115;-76
2021/09/13 11:12:30;;;;;;;4.30;3.40;;;28.90;99.90;;;;;;21172838;28;20044;-76
2021/09/13 11:22:42;;;;;;;4.00;3.55;;;28.90;99.90;;;;;;21172079;28;20038;-76
2021/09/13 11:32:43;;;;;;;3.90;3.05;;;28.40;99.90;;;;;;21171468;28;20027;-76
2021/09/13 11:42:44;;;;;;;3.92;3.45;;;29.50;99.90;;;;;;21171084;28;20509;-76
2021/09/13 11:52:45;;;;;;;3.08;2.20;;;29.30;99.90;;;;;;21186579;28;20066;-77
2021/09/13 12:02:55;;;;;;;3.80;3.13;;;29.00;99.90;;;;;;21209823;28;20011;-80
2021/09/13 12:13:01;;;;;;;4.35;2.97;;;28.90;99.90;;;;;;21172316;28;20164;-78
2021/09/13 12:23:05;;;;;;;5.25;2.40;;;29.40;99.90;;;;;;21157549;28;20039;-79
2021/09/13 12:33:08;;;;;;;6.43;2.42;;;29.00;99.90;;;;;;21172437;28;20367;-78
2021/09/13 12:43:20;;;;;;;4.97;2.55;;;28.80;99.90;;;;;;21171701;28;20034;-79
2021/09/13 12:53:28;;;;;;;3.17;2.00;;;30.20;99.90;;;;;;21171077;28;20055;-79
2021/09/13 13:03:30;;;;;;;2.00;1.80;;;29.20;99.90;;;;;;21174311;28;20027;-78
2021/09/13 13:13:33;;;;;;;4.10;2.22;;;30.00;99.90;;;;;;21148684;28;20059;-79
2021/09/13 13:23:34;;;;;;;2.42;1.95;;;30.00;99.90;;;;;;21169906;28;20024;-78
2021/09/13 13:33:35;;;;;;;3.03;2.10;;;30.40;99.90;;;;;;21180585;28;20046;-78
2021/09/13 13:43:36;;;;;;;2.58;2.03;;;30.20;99.90;;;;;;21179820;28;20058;-79
2021/09/13 13:53:37;;;;;;;3.00;2.00;;;30.50;99.90;;;;;;21178980;28;20073;-78
2021/09/13 14:03:37;;;;;;;5.25;2.30;;;30.80;99.90;;;;;;21177913;28;20032;-79
2021/09/13 14:13:38;;;;;;;5.80;2.38;;;30.80;99.90;;;;;;21172428;28;20035;-78
2021/09/13 14:23:40;;;;;;;5.32;2.70;;;30.00;99.90;;;;;;21175201;28;20058;-79
2021/09/13 14:33:41;;;;;;;2.95;2.17;;;29.40;99.90;;;;;;21169232;28;20426;-79
2021/09/13 14:43:42;;;;;;;2.83;2.53;;;30.20;99.90;;;;;;21141904;28;20047;-79
2021/09/13 14:53:42;;;;;;;4.55;2.80;;;30.40;99.90;;;;;;21174812;27;21022;-79
2021/09/13 15:03:43;;;;;;;5.78;3.10;;;30.30;99.90;;;;;;21239666;27;20103;-78
2021/09/13 15:13:44;;;;;;;3.63;2.53;;;30.10;99.90;;;;;;21239289;27;20106;-78
2021/09/13 15:23:48;;;;;;;3.72;2.78;;;29.80;99.90;;;;;;21153037;27;20301;-78
2021/09/13 15:33:48;;;;;;;4.03;2.50;;;29.20;99.90;;;;;;21151820;28;20196;-78
2021/09/13 15:43:49;;;;;;;5.03;2.60;;;29.80;99.90;;;;;;21160352;28;20150;-77
2021/09/13 15:53:50;;;;;;;3.97;2.78;;;29.20;99.90;;;;;;21149348;28;20574;-76
2021/09/13 16:03:51;;;;;;;8.75;3.00;;;28.50;99.90;;;;;;21175973;28;20036;-78
2021/09/13 16:13:52;;;;;;;6.68;3.15;;;28.00;99.90;;;;;;21103573;28;20036;-77
2021/09/13 16:23:53;;;;;;;5.47;3.20;;;26.80;99.90;;;;;;21147026;28;20489;-77
2021/09/13 16:33:53;;;;;;;4.85;2.85;;;26.40;99.90;;;;;;21146076;28;20383;-77
2021/09/13 16:43:54;;;;;;;5.30;3.38;;;26.40;99.90;;;;;;21145028;28;20866;-77
2021/09/13 16:53:55;;;;;;;4.88;3.25;;;25.50;99.90;;;;;;21130073;27;20498;-77
2021/09/13 17:03:56;;;;;;;7.72;3.45;;;24.70;99.90;;;;;;21126843;28;20714;-79
2021/09/13 17:13:57;;;;;;;8.65;3.60;;;23.50;99.90;;;;;;21176177;28;20039;-76
2021/09/13 17:23:58;;;;;;;4.80;3.43;;;22.50;99.90;;;;;;21154115;28;20389;-76
2021/09/13 17:33:59;;;;;;;6.15;3.97;;;22.10;99.90;;;;;;21179618;27;20401;-76
2021/09/13 17:44:00;;;;;;;5.10;3.70;;;21.20;99.90;;;;;;21225298;27;20027;-76
2021/09/13 17:54:01;;;;;;;7.80;4.20;;;21.30;99.90;;;;;;21224538;27;20046;-76
2021/09/13 18:04:02;;;;;;;5.43;3.80;;;20.50;99.90;;;;;;21162838;27;20036;-76
2021/09/13 18:14:03;;;;;;;6.50;4.27;;;20.30;99.90;;;;;;21138477;28;20526;-77
2021/09/13 18:24:04;;;;;;;6.73;4.50;;;19.70;99.90;;;;;;21138368;28;20024;-77
2021/09/13 18:34:05;;;;;;;6.80;3.97;;;19.40;99.90;;;;;;21140389;28;20027;-77
2021/09/13 18:44:05;;;;;;;5.17;4.10;;;19.30;99.90;;;;;;21138915;28;20028;-77
2021/09/13 18:54:08;;;;;;;7.90;4.40;;;19.20;99.90;;;;;;21140377;28;20091;-78
2021/09/13 19:04:08;;;;;;;6.05;4.35;;;19.00;99.90;;;;;;21140300;28;20548;-79
2021/09/13 19:14:09;;;;;;;6.37;3.93;;;19.10;99.90;;;;;;21160842;28;20028;-79
2021/09/13 19:24:10;;;;;;;8.47;4.83;;;18.60;99.90;;;;;;21153262;28;20808;-77
2021/09/13 19:34:11;;;;;;;7.67;4.87;;;18.10;99.90;;;;;;21134738;28;20044;-79
2021/09/13 19:44:12;;;;;;;8.67;4.73;;;18.50;99.90;;;;;;21152925;28;20074;-77
2021/09/13 19:54:14;;;;;;;6.07;4.20;;;18.60;99.90;;;;;;21149221;28;20028;-77
2021/09/13 20:04:14;;;;;;;6.45;4.78;;;18.10;99.90;;;;;;21149868;28;20118;-76
2021/09/13 20:14:15;;;;;;;6.33;4.33;;;18.10;99.90;;;;;;21148679;28;20561;-78
2021/09/13 20:24:16;;;;;;;6.30;4.30;;;18.20;99.90;;;;;;21151108;28;20032;-79
2021/09/13 20:34:17;;;;;;;7.47;4.80;;;18.00;99.90;;;;;;21133471;28;20028;-76
2021/09/13 20:44:18;;;;;;;5.37;4.00;;;17.80;99.90;;;;;;21145143;28;20059;-76
2021/09/13 20:54:19;;;;;;;5.80;4.90;;;17.90;99.90;;;;;;21144556;28;20041;-76
2021/09/13 21:04:20;;;;;;;8.83;4.80;;;17.20;99.90;;;;;;21143549;28;20564;-76
2021/09/13 21:14:21;;;;;;;;;;;17.20;99.90;;;;;;21148438;28;20604;-76
2021/09/13 21:24:24;;;;;;;7.23;5.07;;;17.00;99.90;;;;;;21160487;28;19973;-76
2021/09/13 21:34:25;;;;;;;9.53;4.47;;;16.50;99.90;;;;;;21124668;28;20035;-76
2021/09/13 21:44:25;;;;;;;9.67;4.37;;;16.60;99.90;;;;;;21158700;28;20420;-76
2021/09/13 21:54:26;;;;;;;7.00;4.60;;;16.70;99.90;;;;;;21129043;28;20039;-76
2021/09/13 22:04:27;;;;;;;6.77;4.73;;;16.40;99.90;;;;;;21140967;28;20039;-76
2021/09/13 22:14:28;;;;;;;7.90;5.20;;;16.90;99.90;;;;;;21158866;28;20028;-76
2021/09/13 22:24:29;;;;;;;6.87;4.60;;;17.00;99.90;;;;;;21156805;28;20082;-76
2021/09/13 22:34:29;;;;;;;6.10;4.43;;;17.10;99.90;;;;;;21157942;28;20031;-76
2021/09/13 22:44:31;;;;;;;6.93;4.73;;;17.20;99.90;;;;;;21157269;28;20085;-76
2021/09/13 22:54:31;;;;;;;9.27;4.27;;;17.10;99.90;;;;;;21138897;28;20043;-76
2021/09/13 23:04:33;;;;;;;8.33;4.80;;;16.80;99.90;;;;;;21173420;28;20156;-76
2021/09/13 23:14:33;;;;;;;6.90;3.93;;;16.80;99.90;;;;;;21154571;28;20555;-76
2021/09/13 23:24:34;;;;;;;11.13;4.83;;;16.70;99.90;;;;;;21171900;28;20106;-76
2021/09/13 23:34:35;;;;;;;7.93;4.93;;;16.30;99.90;;;;;;21171210;28;20027;-76
2021/09/13 23:44:36;;;;;;;10.03;5.00;;;16.40;99.90;;;;;;21170354;28;20052;-76
2021/09/13 23:54:37;;;;;;;6.43;4.80;;;16.50;99.90;;;;;;21151866;28;20493;-76
